createdAt,value
2023-02-17T00:01:25.051Z,69.16
2023-02-17T00:03:53.274Z,69.22
2023-02-17T00:06:22.963Z,69.15
2023-02-17T00:08:50.135Z,69.19
2023-02-17T00:11:17.529Z,69.03
2023-02-17T00:13:44.684Z,69.19
2023-02-17T00:16:19.333Z,69.36
2023-02-17T00:18:46.721Z,69.32
2023-02-17T00:21:19.195Z,69.00
2023-02-17T00:23:47.658Z,69.08
2023-02-17T00:26:15.699Z,69.20
2023-02-17T00:28:42.681Z,69.34
2023-02-17T00:31:11.939Z,69.18
2023-02-17T00:33:39.115Z,69.27
2023-02-17T00:36:07.635Z,69.41
2023-02-17T00:38:35.087Z,69.50
2023-02-17T00:41:01.789Z,69.50
2023-02-17T00:43:28.542Z,69.74
2023-02-17T00:45:55.804Z,69.69
2023-02-17T00:48:22.800Z,69.44
2023-02-17T00:50:49.712Z,69.57
2023-02-17T00:53:16.483Z,69.68
2023-02-17T00:55:43.100Z,69.65
2023-02-17T00:58:09.963Z,69.85
2023-02-17T01:00:37.034Z,69.61
2023-02-17T01:03:03.907Z,69.54
2023-02-17T01:05:30.856Z,69.88
2023-02-17T01:07:57.507Z,69.73
2023-02-17T01:10:24.204Z,69.99
2023-02-17T01:12:51.145Z,69.85
2023-02-17T01:15:17.857Z,70.21
2023-02-17T01:17:44.465Z,69.94
2023-02-17T01:20:11.513Z,70.19
2023-02-17T01:22:39.834Z,70.24
2023-02-17T01:25:06.749Z,70.12
2023-02-17T01:27:33.871Z,70.14
2023-02-17T01:30:00.465Z,69.94
2023-02-17T01:44:20.809Z,72.54
2023-02-17T01:46:49.911Z,72.02
2023-02-17T01:49:22.596Z,71.89
2023-02-17T01:51:55.374Z,70.93
2023-02-17T01:54:30.398Z,70.87
2023-02-17T01:56:59.909Z,70.30
2023-02-17T01:59:28.415Z,70.67
2023-02-17T02:01:58.909Z,70.18
2023-02-17T02:04:31.871Z,69.79
2023-02-17T02:06:58.928Z,69.99
2023-02-17T02:09:35.661Z,69.78
2023-02-17T02:12:02.684Z,69.76
2023-02-17T02:14:29.746Z,69.67
2023-02-17T02:17:26.828Z,69.78
2023-02-17T02:20:21.687Z,69.65
2023-02-17T02:23:10.072Z,69.47
2023-02-17T02:26:12.187Z,69.75
2023-02-17T02:28:55.796Z,69.66
2023-02-17T02:31:44.874Z,69.52
2023-02-17T02:34:23.841Z,69.50
2023-02-17T02:37:07.532Z,69.59
2023-02-17T02:39:42.319Z,69.30
2023-02-17T02:42:14.781Z,69.36
2023-02-17T02:44:41.545Z,69.52
2023-02-17T02:47:39.183Z,69.73
2023-02-17T02:50:06.624Z,69.56
2023-02-17T02:53:12.063Z,69.52
2023-02-17T02:55:53.300Z,69.51
2023-02-17T02:58:28.010Z,69.39
2023-02-17T03:01:34.319Z,69.64
2023-02-17T03:04:16.224Z,69.40
2023-02-17T03:06:56.996Z,69.57
2023-02-17T03:09:27.946Z,69.69
2023-02-17T03:11:58.781Z,69.83
2023-02-17T03:14:25.392Z,69.45
2023-02-17T03:16:52.602Z,69.76
2023-02-17T03:19:23.663Z,69.86
2023-02-17T03:22:16.243Z,69.69
2023-02-17T03:24:42.863Z,69.63
2023-02-17T03:27:09.464Z,69.80
2023-02-17T03:29:36.167Z,69.69
2023-02-17T03:32:02.946Z,69.64
2023-02-17T03:34:29.594Z,69.88
2023-02-17T03:36:56.346Z,69.70
2023-02-17T03:39:23.247Z,69.88
2023-02-17T03:41:51.699Z,69.85
2023-02-17T03:44:19.700Z,69.73
2023-02-17T03:46:46.997Z,69.90
2023-02-17T03:49:13.657Z,69.78
2023-02-17T03:51:40.588Z,69.96
2023-02-17T03:54:07.390Z,69.64
2023-02-17T03:56:33.963Z,69.93
2023-02-17T03:59:00.621Z,69.66
2023-02-17T04:01:27.437Z,70.10
2023-02-17T04:03:54.182Z,70.03
2023-02-17T04:06:21.070Z,70.09
2023-02-17T04:08:48.028Z,69.94
2023-02-17T04:11:14.630Z,70.19
2023-02-17T04:13:41.258Z,70.09
2023-02-17T04:16:10.019Z,70.18
2023-02-17T04:18:37.317Z,70.16
2023-02-17T04:21:05.074Z,70.16
2023-02-17T04:23:31.744Z,70.32
2023-02-17T04:25:58.649Z,70.11
2023-02-17T04:28:26.423Z,70.19
2023-02-17T04:30:53.176Z,69.96
2023-02-17T04:33:19.800Z,70.04
2023-02-17T04:35:47.999Z,70.24
2023-02-17T04:38:14.743Z,70.25
2023-02-17T04:40:41.849Z,69.99
2023-02-17T04:43:09.396Z,70.29
2023-02-17T04:45:37.593Z,70.24
2023-02-17T04:48:04.589Z,70.22
2023-02-17T04:50:31.433Z,70.10
2023-02-17T04:52:58.163Z,70.18
2023-02-17T04:55:24.745Z,70.22
2023-02-17T04:57:51.498Z,70.28
2023-02-17T05:00:18.553Z,70.46
2023-02-17T05:02:45.194Z,70.60
2023-02-17T05:05:15.272Z,70.57
2023-02-17T05:07:46.542Z,70.68
2023-02-17T05:10:19.449Z,70.58
2023-02-17T05:12:46.207Z,70.65
2023-02-17T05:15:13.308Z,70.54
2023-02-17T05:17:40.499Z,70.40
2023-02-17T05:20:08.132Z,70.68
2023-02-17T05:22:34.734Z,70.61
2023-02-17T05:25:01.404Z,70.61
2023-02-17T05:27:28.098Z,70.67
2023-02-17T05:29:54.784Z,70.58
2023-02-17T05:32:23.240Z,70.48
2023-02-17T05:34:50.041Z,70.50
2023-02-17T05:37:16.776Z,70.49
2023-02-17T05:39:43.542Z,70.90
2023-02-17T05:42:10.382Z,70.69
2023-02-17T05:44:37.021Z,70.85
2023-02-17T05:47:03.919Z,70.94
2023-02-17T05:49:30.536Z,70.80
2023-02-17T05:51:57.139Z,70.61
2023-02-17T05:54:23.753Z,70.65
2023-02-17T05:56:50.509Z,70.79
2023-02-17T05:59:17.194Z,70.75
2023-02-17T06:01:44.182Z,70.45
2023-02-17T06:04:10.958Z,70.66
2023-02-17T06:06:37.958Z,70.53
2023-02-17T06:09:04.618Z,70.64
2023-02-17T06:11:31.241Z,70.66
2023-02-17T06:13:57.845Z,70.80
2023-02-17T06:16:24.753Z,70.83
2023-02-17T06:18:51.382Z,70.71
2023-02-17T06:21:18.028Z,70.83
2023-02-17T06:23:44.667Z,70.59
2023-02-17T06:26:11.390Z,70.87
2023-02-17T06:28:38.011Z,70.93
2023-02-17T06:31:04.870Z,71.01
2023-02-17T06:33:31.865Z,70.99
2023-02-17T06:35:58.496Z,71.14
2023-02-17T06:38:25.198Z,71.15
2023-02-17T06:40:53.588Z,70.92
2023-02-17T06:43:20.724Z,70.98
2023-02-17T06:45:47.867Z,70.78
2023-02-17T06:48:14.551Z,71.07
2023-02-17T06:50:41.410Z,70.73
2023-02-17T06:53:08.199Z,71.13
2023-02-17T06:55:37.265Z,70.93
2023-02-17T06:58:03.947Z,71.12
2023-02-17T07:00:30.634Z,71.34
2023-02-17T07:02:57.507Z,71.35
2023-02-17T07:05:24.288Z,71.17
2023-02-17T07:07:53.362Z,71.28
2023-02-17T07:10:20.567Z,71.23
2023-02-17T07:12:47.290Z,71.45
2023-02-17T07:15:14.979Z,71.22
2023-02-17T07:17:41.648Z,71.51
2023-02-17T07:20:09.417Z,71.46
2023-02-17T07:22:36.138Z,71.45
2023-02-17T07:25:03.103Z,71.70
2023-02-17T07:27:29.820Z,71.38
2023-02-17T07:29:56.502Z,71.60
2023-02-17T07:32:23.385Z,71.70
2023-02-17T07:34:50.004Z,71.98
2023-02-17T07:37:16.723Z,71.59
2023-02-17T07:39:43.489Z,71.79
2023-02-17T07:42:10.158Z,71.88
2023-02-17T07:44:36.991Z,71.72
2023-02-17T07:47:04.211Z,71.67
2023-02-17T07:49:30.911Z,71.78
2023-02-17T07:51:57.676Z,71.86
2023-02-17T07:54:24.615Z,71.49
2023-02-17T07:56:51.204Z,71.67
2023-02-17T07:59:18.003Z,71.39
2023-02-17T08:01:44.683Z,71.46
2023-02-17T08:04:11.372Z,71.63
2023-02-17T08:06:40.212Z,71.65
2023-02-17T08:09:25.431Z,71.48
2023-02-17T08:12:10.690Z,71.35
2023-02-17T08:14:38.407Z,71.59
2023-02-17T08:17:06.605Z,71.79
2023-02-17T08:19:46.991Z,71.67
2023-02-17T08:22:16.306Z,71.74
2023-02-17T08:24:42.949Z,71.77
2023-02-17T08:27:09.563Z,71.42
2023-02-17T08:29:36.314Z,71.45
2023-02-17T08:32:03.353Z,71.59
2023-02-17T08:34:33.723Z,71.55
2023-02-17T08:37:05.254Z,71.55
2023-02-17T08:39:32.509Z,71.49
2023-02-17T08:41:59.477Z,71.48
2023-02-17T08:44:26.916Z,71.34
2023-02-17T08:46:54.032Z,70.91
2023-02-17T08:49:23.850Z,71.41
2023-02-17T08:51:51.900Z,71.13
2023-02-17T08:54:18.686Z,71.17
2023-02-17T08:56:45.442Z,71.01
2023-02-17T08:59:14.691Z,70.59
2023-02-17T09:01:42.779Z,71.09
2023-02-17T09:04:11.743Z,71.08
2023-02-17T09:06:47.614Z,70.82
2023-02-17T09:09:17.369Z,70.92
2023-02-17T09:11:44.567Z,70.71
2023-02-17T09:14:11.768Z,70.65
2023-02-17T09:16:40.450Z,70.35
2023-02-17T09:19:08.211Z,70.19
2023-02-17T09:21:34.838Z,70.23
2023-02-17T09:24:01.561Z,70.24
2023-02-17T09:26:28.270Z,70.28
2023-02-17T09:28:55.157Z,70.37
2023-02-17T09:31:25.752Z,70.16
2023-02-17T09:33:52.946Z,70.14
2023-02-17T09:36:24.597Z,70.33
2023-02-17T09:38:51.767Z,69.89
2023-02-17T09:41:23.284Z,69.79
2023-02-17T09:43:55.070Z,69.91
2023-02-17T09:46:33.253Z,69.65
2023-02-17T09:49:08.115Z,69.49
2023-02-17T09:51:43.746Z,69.11
2023-02-17T09:54:23.844Z,68.97
2023-02-17T09:56:52.847Z,68.87
2023-02-17T09:59:24.607Z,68.42
2023-02-17T10:01:52.463Z,68.12
2023-02-17T10:04:37.448Z,67.71
2023-02-17T10:07:29.442Z,67.69
2023-02-17T10:10:04.515Z,67.04
2023-02-17T10:12:38.661Z,67.06
2023-02-17T10:15:17.998Z,66.80
2023-02-17T10:17:57.547Z,66.51
2023-02-17T10:20:38.101Z,66.20
2023-02-17T10:23:10.903Z,66.40
2023-02-17T10:25:46.897Z,66.13
2023-02-17T10:28:43.117Z,65.50
2023-02-17T10:31:20.541Z,65.45
2023-02-17T10:34:22.183Z,65.29
2023-02-17T10:37:03.312Z,64.94
2023-02-17T10:39:39.049Z,64.97
2023-02-17T10:42:07.317Z,64.71
2023-02-17T10:44:37.890Z,64.46
2023-02-17T10:47:05.246Z,64.22
2023-02-17T10:49:36.407Z,63.88
2023-02-17T10:52:12.033Z,63.49
2023-02-17T10:55:23.290Z,63.63
2023-02-17T10:57:57.608Z,63.26
2023-02-17T11:00:25.191Z,62.87
2023-02-17T11:02:52.464Z,62.90
2023-02-17T11:05:34.176Z,62.53
2023-02-17T11:08:06.660Z,62.42
2023-02-17T11:10:35.541Z,62.13
2023-02-17T11:13:04.542Z,61.98
2023-02-17T11:15:43.370Z,61.79
2023-02-17T11:18:18.420Z,61.54
2023-02-17T11:20:45.632Z,61.41
2023-02-17T11:23:15.490Z,61.20
2023-02-17T11:25:44.051Z,60.94
2023-02-17T11:28:24.091Z,60.93
2023-02-17T11:30:53.938Z,60.76
2023-02-17T11:33:33.305Z,60.68
2023-02-17T11:36:01.199Z,60.45
2023-02-17T11:38:33.785Z,60.46
2023-02-17T11:41:04.766Z,60.33
2023-02-17T11:43:33.150Z,60.45
2023-02-17T11:46:09.765Z,60.58
2023-02-17T11:49:06.212Z,60.18
2023-02-17T11:51:51.751Z,60.14
2023-02-17T11:54:35.205Z,59.84
2023-02-17T11:57:41.303Z,59.73
2023-02-17T12:00:22.844Z,59.80
2023-02-17T12:03:10.312Z,59.60
2023-02-17T12:06:08.609Z,59.50
2023-02-17T12:08:47.954Z,59.47
2023-02-17T12:11:47.064Z,59.04
2023-02-17T12:14:32.162Z,58.94
2023-02-17T12:17:09.911Z,58.86
2023-02-17T12:19:46.103Z,59.14
2023-02-17T12:22:20.903Z,58.99
2023-02-17T12:25:15.271Z,59.39
2023-02-17T12:28:12.360Z,59.44
2023-02-17T12:31:01.451Z,59.49
2023-02-17T12:33:52.702Z,59.67
2023-02-17T12:36:19.975Z,59.87
2023-02-17T12:39:22.733Z,59.80
2023-02-17T12:41:55.798Z,60.02
2023-02-17T12:44:46.304Z,60.13
2023-02-17T12:47:21.154Z,60.30
2023-02-17T12:50:04.089Z,60.37
2023-02-17T12:52:44.806Z,60.25
2023-02-17T12:55:20.565Z,60.54
2023-02-17T12:57:58.484Z,60.57
2023-02-17T13:00:39.370Z,60.23
2023-02-17T13:03:08.396Z,60.70
2023-02-17T13:05:43.118Z,60.30
2023-02-17T13:08:24.829Z,60.41
2023-02-17T13:11:04.179Z,60.33
2023-02-17T13:13:33.501Z,60.42
2023-02-17T13:16:11.289Z,60.32
2023-02-17T13:18:43.236Z,60.31
2023-02-17T13:21:18.752Z,60.28
2023-02-17T13:24:13.625Z,60.31
2023-02-17T13:26:43.918Z,60.38
2023-02-17T13:29:10.789Z,60.25
2023-02-17T13:32:04.893Z,60.22
2023-02-17T13:34:39.471Z,60.13
2023-02-17T13:37:35.702Z,60.02
2023-02-17T13:40:29.846Z,60.02
2023-02-17T13:43:14.398Z,59.81
2023-02-17T13:45:43.124Z,60.15
2023-02-17T13:48:34.103Z,59.90
2023-02-17T13:51:03.333Z,60.12
2023-02-17T13:53:38.681Z,59.86
2023-02-17T13:56:09.540Z,60.16
2023-02-17T13:58:39.663Z,60.27
2023-02-17T14:01:13.800Z,60.28
2023-02-17T14:03:40.545Z,60.40
2023-02-17T14:06:19.808Z,60.30
2023-02-17T14:08:46.836Z,60.38
2023-02-17T14:11:17.169Z,60.57
2023-02-17T14:13:46.919Z,60.58
2023-02-17T14:16:46.330Z,60.74
2023-02-17T14:19:15.552Z,60.77
2023-02-17T14:21:45.929Z,61.34
2023-02-17T14:24:35.449Z,61.05
2023-02-17T14:27:09.412Z,61.30
2023-02-17T14:29:44.606Z,61.14
2023-02-17T14:32:30.094Z,61.40
2023-02-17T14:35:06.862Z,61.11
2023-02-17T14:37:37.100Z,61.38
2023-02-17T14:40:16.568Z,61.55
2023-02-17T14:42:43.540Z,61.56
2023-02-17T14:45:10.255Z,61.50
2023-02-17T14:47:37.025Z,61.40
2023-02-17T14:50:04.090Z,61.46
2023-02-17T14:52:30.738Z,61.57
2023-02-17T14:55:00.459Z,61.60
2023-02-17T14:57:28.093Z,61.74
2023-02-17T14:59:57.642Z,61.85
2023-02-17T15:02:25.181Z,62.07
2023-02-17T15:04:51.955Z,61.81
2023-02-17T15:07:19.348Z,61.89
2023-02-17T15:09:48.197Z,62.11
2023-02-17T15:12:17.974Z,62.09
2023-02-17T15:14:46.953Z,62.30
2023-02-17T15:17:14.421Z,62.41
2023-02-17T15:19:44.027Z,62.64
2023-02-17T15:22:20.237Z,62.65
2023-02-17T15:24:47.227Z,62.84
2023-02-17T15:27:15.151Z,62.63
2023-02-17T15:29:42.037Z,62.87
2023-02-17T15:32:18.892Z,62.94
2023-02-17T15:34:46.505Z,63.00
2023-02-17T15:37:13.549Z,63.24
2023-02-17T15:39:40.171Z,63.13
2023-02-17T15:42:13.764Z,63.43
2023-02-17T15:44:46.887Z,63.66
2023-02-17T15:47:17.668Z,63.47
2023-02-17T15:49:45.115Z,63.68
2023-02-17T15:52:13.849Z,64.00
2023-02-17T15:54:43.992Z,63.96
2023-02-17T15:57:25.046Z,64.13
2023-02-17T15:59:55.088Z,63.95
2023-02-17T16:02:23.680Z,64.29
2023-02-17T16:04:50.622Z,64.39
2023-02-17T16:07:17.631Z,64.28
2023-02-17T16:09:44.356Z,64.44
2023-02-17T16:12:17.988Z,64.51
2023-02-17T16:14:45.259Z,64.51
2023-02-17T16:17:16.580Z,64.40
2023-02-17T16:19:43.611Z,64.43
2023-02-17T16:22:10.480Z,64.72
2023-02-17T16:24:37.491Z,64.60
2023-02-17T16:27:08.364Z,64.73
2023-02-17T16:29:35.956Z,64.75
2023-02-17T16:32:02.850Z,64.75
2023-02-17T16:34:32.442Z,65.30
2023-02-17T16:37:03.243Z,64.89
2023-02-17T16:39:30.233Z,65.02
2023-02-17T16:41:56.939Z,65.10
2023-02-17T16:44:24.037Z,65.26
2023-02-17T16:46:53.704Z,65.25
2023-02-17T16:49:28.411Z,65.46
2023-02-17T16:51:55.056Z,65.59
2023-02-17T16:54:21.710Z,65.72
2023-02-17T16:56:51.123Z,65.79
2023-02-17T16:59:22.082Z,65.78
2023-02-17T17:01:51.146Z,66.09
2023-02-17T17:04:18.487Z,65.98
2023-02-17T17:06:48.338Z,66.24
2023-02-17T17:09:17.057Z,66.35
2023-02-17T17:11:44.277Z,66.32
2023-02-17T17:14:12.234Z,66.17
2023-02-17T17:16:41.548Z,66.19
2023-02-17T17:19:11.275Z,66.33
2023-02-17T17:21:37.940Z,66.36
2023-02-17T17:24:04.719Z,66.78
2023-02-17T17:26:40.920Z,66.52
2023-02-17T17:29:10.042Z,66.91
2023-02-17T17:31:37.589Z,66.89
2023-02-17T17:34:04.462Z,67.12
2023-02-17T17:36:34.390Z,67.00
2023-02-17T17:39:03.057Z,67.12
2023-02-17T17:41:30.483Z,67.10
2023-02-17T17:43:58.022Z,67.21
2023-02-17T17:46:30.133Z,67.23
2023-02-17T17:48:59.275Z,67.34
2023-02-17T17:51:28.545Z,67.22
2023-02-17T17:53:55.781Z,67.20
2023-02-17T17:56:28.402Z,67.60
2023-02-17T17:58:56.385Z,67.53
2023-02-17T18:01:23.498Z,67.61
2023-02-17T18:03:50.842Z,67.70
2023-02-17T18:06:24.511Z,67.68
2023-02-17T18:08:53.717Z,67.61
2023-02-17T18:11:23.196Z,67.30
2023-02-17T18:13:56.269Z,67.28
2023-02-17T18:16:26.200Z,67.55
2023-02-17T18:18:53.473Z,67.47
2023-02-17T18:21:20.771Z,67.63
2023-02-17T18:23:48.528Z,67.60
2023-02-17T18:26:15.639Z,67.96
2023-02-17T18:28:42.625Z,67.81
2023-02-17T18:31:12.298Z,67.82
2023-02-17T18:33:39.385Z,67.79
2023-02-17T18:36:09.350Z,67.70
2023-02-17T18:38:36.461Z,67.64
2023-02-17T18:41:04.298Z,67.99
2023-02-17T18:43:31.126Z,68.03
2023-02-17T18:45:58.126Z,67.94
2023-02-17T18:48:25.069Z,67.97
2023-02-17T18:50:52.083Z,68.09
2023-02-17T18:53:18.957Z,68.33
2023-02-17T18:55:45.685Z,68.41
2023-02-17T18:58:13.060Z,68.33
2023-02-17T19:00:39.803Z,68.42
2023-02-17T19:03:06.540Z,68.79
2023-02-17T19:05:36.157Z,68.79
2023-02-17T19:08:02.797Z,68.58
2023-02-17T19:10:29.750Z,68.57
2023-02-17T19:12:58.247Z,69.03
2023-02-17T19:15:24.846Z,69.35
2023-02-17T19:17:55.927Z,69.34
2023-02-17T19:20:25.900Z,69.49
2023-02-17T19:22:52.658Z,69.48
2023-02-17T19:25:19.283Z,69.83
2023-02-17T19:27:46.151Z,70.01
2023-02-17T19:30:13.602Z,69.92
2023-02-17T19:32:40.346Z,70.24
2023-02-17T19:35:10.024Z,70.47
2023-02-17T19:37:38.500Z,70.47
2023-02-17T19:40:05.777Z,70.78
2023-02-17T19:42:32.626Z,70.65
2023-02-17T19:44:59.495Z,70.98
2023-02-17T19:47:26.202Z,71.16
2023-02-17T19:49:52.926Z,71.36
2023-02-17T19:52:21.089Z,71.62
2023-02-17T19:54:49.578Z,71.62
2023-02-17T19:57:19.407Z,71.56
2023-02-17T19:59:46.221Z,71.49
2023-02-17T20:02:14.560Z,71.83
2023-02-17T20:04:42.377Z,71.60
2023-02-17T20:07:09.006Z,71.46
2023-02-17T20:09:35.995Z,71.69
2023-02-17T20:12:02.878Z,71.87
2023-02-17T20:14:29.690Z,72.00
2023-02-17T20:16:56.483Z,71.93
2023-02-17T20:19:23.489Z,72.05
2023-02-17T20:21:50.185Z,72.18
2023-02-17T20:24:16.853Z,72.05
2023-02-17T20:26:51.103Z,72.04
2023-02-17T20:29:17.915Z,72.05
2023-02-17T20:31:44.970Z,72.10
2023-02-17T20:34:37.705Z,72.20
2023-02-17T20:37:04.788Z,72.37
2023-02-17T20:39:33.006Z,72.25
2023-02-17T20:42:00.447Z,72.59
2023-02-17T20:44:28.236Z,72.71
2023-02-17T20:46:56.206Z,72.55
2023-02-17T20:49:24.103Z,72.61
2023-02-17T20:51:51.213Z,72.52
2023-02-17T20:54:18.270Z,72.78
2023-02-17T20:56:46.668Z,72.65
2023-02-17T20:59:14.147Z,72.60
2023-02-17T21:01:42.320Z,72.83
2023-02-17T21:04:10.583Z,72.86
2023-02-17T21:06:43.173Z,72.82
2023-02-17T21:09:15.152Z,72.55
2023-02-17T21:11:42.216Z,72.67
2023-02-17T21:14:09.393Z,72.81
2023-02-17T21:16:36.514Z,72.89
2023-02-17T21:19:03.368Z,73.26
2023-02-17T21:21:31.182Z,73.15
2023-02-17T21:23:59.506Z,73.06
2023-02-17T21:26:26.564Z,73.35
2023-02-17T21:28:53.476Z,73.15
2023-02-17T21:31:21.359Z,73.26
2023-02-17T21:33:48.496Z,73.29
2023-02-17T21:36:17.044Z,73.08
2023-02-17T21:38:44.229Z,73.39
2023-02-17T21:41:17.401Z,73.13
2023-02-17T21:44:02.715Z,73.07
2023-02-17T21:46:30.467Z,73.09
2023-02-17T21:48:59.346Z,72.94
2023-02-17T21:51:26.831Z,73.03
2023-02-17T21:53:53.876Z,73.11
2023-02-17T21:56:22.712Z,73.22
2023-02-17T21:58:53.332Z,73.34
2023-02-17T22:01:22.707Z,73.33
2023-02-17T22:03:50.521Z,73.09
2023-02-17T22:06:35.707Z,73.33
2023-02-17T22:09:03.111Z,73.44
2023-02-17T22:11:32.502Z,73.33
2023-02-17T22:14:02.157Z,73.16
2023-02-17T22:16:34.304Z,73.21
2023-02-17T22:19:01.718Z,73.34
2023-02-17T22:21:29.227Z,73.29
2023-02-17T22:23:58.391Z,73.35
2023-02-17T22:26:26.116Z,73.53
2023-02-17T22:28:54.568Z,73.56
2023-02-17T22:31:24.261Z,73.74
2023-02-17T22:33:51.411Z,73.45
2023-02-17T22:36:22.706Z,73.37
2023-02-17T22:38:50.165Z,73.56
2023-02-17T22:41:19.542Z,73.62
2023-02-17T22:43:47.603Z,73.54
2023-02-17T22:46:16.495Z,73.43
2023-02-17T22:48:44.807Z,73.89
2023-02-17T22:51:14.841Z,73.90
2023-02-17T22:53:41.700Z,73.87
2023-02-17T22:56:08.869Z,73.96
2023-02-17T22:58:37.076Z,74.06
2023-02-17T23:01:10.135Z,74.13
2023-02-17T23:03:37.118Z,74.15
2023-02-17T23:06:07.572Z,74.17
2023-02-17T23:08:34.707Z,74.04
2023-02-17T23:11:08.750Z,74.17
2023-02-17T23:13:36.295Z,73.95
2023-02-17T23:16:03.314Z,74.31
2023-02-17T23:18:32.041Z,74.35
2023-02-17T23:20:59.681Z,74.23
2023-02-17T23:23:26.807Z,74.34
2023-02-17T23:25:55.977Z,74.42
2023-02-17T23:28:25.539Z,74.10
2023-02-17T23:30:53.174Z,74.40
2023-02-17T23:33:22.141Z,74.47
2023-02-17T23:35:48.907Z,74.43
2023-02-17T23:38:18.539Z,74.39
2023-02-17T23:40:49.382Z,74.58
2023-02-17T23:43:16.294Z,74.24
2023-02-17T23:45:43.085Z,74.67
2023-02-17T23:48:12.542Z,74.48
2023-02-17T23:50:39.358Z,74.38
2023-02-17T23:53:06.896Z,74.46
2023-02-17T23:55:33.816Z,74.46
2023-02-17T23:58:00.743Z,74.74
